sensor_id;sensor_type;location;lat;lon;timestamp;temperature;humidity
51996;DHT22;38010;53.264;6.592;2023-08-17T00:01:40;21.50;99.90
51996;DHT22;38010;53.264;6.592;2023-08-17T00:04:06;21.50;99.90
51996;DHT22;38010;53.264;6.592;2023-08-17T00:06:32;21.50;99.90
51996;DHT22;38010;53.264;6.592;2023-08-17T00:08:58;21.50;99.90
51996;DHT22;38010;53.264;6.592;2023-08-17T00:11:24;21.50;99.90
51996;DHT22;38010;53.264;6.592;2023-08-17T00:13:50;21.50;99.90
51996;DHT22;38010;53.264;6.592;2023-08-17T00:16:15;21.50;99.90
51996;DHT22;38010;53.264;6.592;2023-08-17T00:18:42;21.50;99.90
51996;DHT22;38010;53.264;6.592;2023-08-17T00:21:08;21.50;99.90
51996;DHT22;38010;53.264;6.592;2023-08-17T00:23:33;21.50;99.90
51996;DHT22;38010;53.264;6.592;2023-08-17T00:26:00;21.50;99.90
51996;DHT22;38010;53.264;6.592;2023-08-17T00:28:25;21.50;99.90
51996;DHT22;38010;53.264;6.592;2023-08-17T00:30:51;21.50;99.90
51996;DHT22;38010;53.264;6.592;2023-08-17T00:33:17;21.40;99.90
51996;DHT22;38010;53.264;6.592;2023-08-17T00:35:43;21.40;99.90
51996;DHT22;38010;53.264;6.592;2023-08-17T00:38:09;21.50;99.90
51996;DHT22;38010;53.264;6.592;2023-08-17T00:40:35;21.40;99.90
51996;DHT22;38010;53.264;6.592;2023-08-17T00:43:01;21.40;99.90
51996;DHT22;38010;53.264;6.592;2023-08-17T00:45:26;21.40;99.90
51996;DHT22;38010;53.264;6.592;2023-08-17T00:47:56;21.40;99.90
51996;DHT22;38010;53.264;6.592;2023-08-17T00:50:23;21.40;99.90
51996;DHT22;38010;53.264;6.592;2023-08-17T00:52:49;21.40;99.90
51996;DHT22;38010;53.264;6.592;2023-08-17T00:55:16;21.40;99.90
51996;DHT22;38010;53.264;6.592;2023-08-17T00:57:42;21.40;99.90
51996;DHT22;38010;53.264;6.592;2023-08-17T01:00:11;21.40;99.90
51996;DHT22;38010;53.264;6.592;2023-08-17T01:02:37;21.40;99.90
51996;DHT22;38010;53.264;6.592;2023-08-17T01:05:03;21.40;99.90
51996;DHT22;38010;53.264;6.592;2023-08-17T01:07:31;21.40;99.90
51996;DHT22;38010;53.264;6.592;2023-08-17T01:09:57;21.40;99.90
51996;DHT22;38010;53.264;6.592;2023-08-17T01:13:15;21.40;99.90
51996;DHT22;38010;53.264;6.592;2023-08-17T01:15:31;21.40;99.90
51996;DHT22;38010;53.264;6.592;2023-08-17T01:18:05;21.40;99.90
51996;DHT22;38010;53.264;6.592;2023-08-17T01:20:33;21.40;99.90
51996;DHT22;38010;53.264;6.592;2023-08-17T01:23:05;21.40;99.90
51996;DHT22;38010;53.264;6.592;2023-08-17T01:25:31;21.30;99.90
51996;DHT22;38010;53.264;6.592;2023-08-17T01:28:03;21.40;99.90
51996;DHT22;38010;53.264;6.592;2023-08-17T01:30:33;21.40;99.90
51996;DHT22;38010;53.264;6.592;2023-08-17T01:33:08;21.40;99.90
51996;DHT22;38010;53.264;6.592;2023-08-17T01:35:39;21.30;99.90
51996;DHT22;38010;53.264;6.592;2023-08-17T01:38:16;21.40;99.90
51996;DHT22;38010;53.264;6.592;2023-08-17T01:40:44;21.40;99.90
51996;DHT22;38010;53.264;6.592;2023-08-17T01:43:11;21.30;99.90
51996;DHT22;38010;53.264;6.592;2023-08-17T01:45:37;21.30;99.90
51996;DHT22;38010;53.264;6.592;2023-08-17T01:48:03;21.30;99.90
51996;DHT22;38010;53.264;6.592;2023-08-17T01:50:29;21.30;99.90
51996;DHT22;38010;53.264;6.592;2023-08-17T01:52:55;21.30;99.90
51996;DHT22;38010;53.264;6.592;2023-08-17T01:55:21;21.30;99.90
51996;DHT22;38010;53.264;6.592;2023-08-17T01:57:49;21.30;99.90
51996;DHT22;38010;53.264;6.592;2023-08-17T02:00:15;21.30;99.90
51996;DHT22;38010;53.264;6.592;2023-08-17T02:02:40;21.30;99.90
51996;DHT22;38010;53.264;6.592;2023-08-17T02:05:07;21.30;99.90
51996;DHT22;38010;53.264;6.592;2023-08-17T02:07:33;21.30;99.90
51996;DHT22;38010;53.264;6.592;2023-08-17T02:09:59;21.30;99.90
51996;DHT22;38010;53.264;6.592;2023-08-17T02:12:24;21.30;99.90
51996;DHT22;38010;53.264;6.592;2023-08-17T02:14:50;21.30;99.90
51996;DHT22;38010;53.264;6.592;2023-08-17T02:17:16;21.30;99.90
51996;DHT22;38010;53.264;6.592;2023-08-17T02:19:42;21.30;99.90
51996;DHT22;38010;53.264;6.592;2023-08-17T02:22:09;21.30;99.90
51996;DHT22;38010;53.264;6.592;2023-08-17T02:24:35;21.30;99.90
51996;DHT22;38010;53.264;6.592;2023-08-17T02:27:01;21.30;99.90
51996;DHT22;38010;53.264;6.592;2023-08-17T02:29:26;21.30;99.90
51996;DHT22;38010;53.264;6.592;2023-08-17T02:31:52;21.30;99.90
51996;DHT22;38010;53.264;6.592;2023-08-17T02:34:18;21.30;99.90
51996;DHT22;38010;53.264;6.592;2023-08-17T02:36:43;21.30;99.90
51996;DHT22;38010;53.264;6.592;2023-08-17T02:39:09;21.30;99.90
51996;DHT22;38010;53.264;6.592;2023-08-17T02:41:35;21.30;99.90
51996;DHT22;38010;53.264;6.592;2023-08-17T02:44:01;21.20;99.90
51996;DHT22;38010;53.264;6.592;2023-08-17T02:46:27;21.30;99.90
51996;DHT22;38010;53.264;6.592;2023-08-17T02:48:52;21.20;99.90
51996;DHT22;38010;53.264;6.592;2023-08-17T02:51:18;21.20;99.90
51996;DHT22;38010;53.264;6.592;2023-08-17T02:53:44;21.20;99.90
51996;DHT22;38010;53.264;6.592;2023-08-17T02:56:10;21.20;99.90
51996;DHT22;38010;53.264;6.592;2023-08-17T02:58:38;21.20;99.90
51996;DHT22;38010;53.264;6.592;2023-08-17T03:01:10;21.20;99.90
51996;DHT22;38010;53.264;6.592;2023-08-17T03:03:35;21.20;99.90
51996;DHT22;38010;53.264;6.592;2023-08-17T03:06:02;21.20;99.90
51996;DHT22;38010;53.264;6.592;2023-08-17T03:08:28;21.20;99.90
51996;DHT22;38010;53.264;6.592;2023-08-17T03:10:54;21.20;99.90
51996;DHT22;38010;53.264;6.592;2023-08-17T03:13:20;21.20;99.90
51996;DHT22;38010;53.264;6.592;2023-08-17T03:15:46;21.20;99.90
51996;DHT22;38010;53.264;6.592;2023-08-17T03:18:11;21.20;99.90
51996;DHT22;38010;53.264;6.592;2023-08-17T03:20:37;21.20;99.90
51996;DHT22;38010;53.264;6.592;2023-08-17T03:23:03;21.20;99.90
51996;DHT22;38010;53.264;6.592;2023-08-17T03:25:32;21.20;99.90
51996;DHT22;38010;53.264;6.592;2023-08-17T03:27:59;21.20;99.90
51996;DHT22;38010;53.264;6.592;2023-08-17T03:30:24;21.20;99.90
51996;DHT22;38010;53.264;6.592;2023-08-17T03:32:50;21.20;99.90
51996;DHT22;38010;53.264;6.592;2023-08-17T03:35:16;21.10;99.90
51996;DHT22;38010;53.264;6.592;2023-08-17T03:37:41;21.10;99.90
51996;DHT22;38010;53.264;6.592;2023-08-17T03:40:07;21.10;99.90
51996;DHT22;38010;53.264;6.592;2023-08-17T03:42:33;21.10;99.90
51996;DHT22;38010;53.264;6.592;2023-08-17T03:44:59;21.10;99.90
51996;DHT22;38010;53.264;6.592;2023-08-17T03:47:24;21.10;99.90
51996;DHT22;38010;53.264;6.592;2023-08-17T03:49:52;21.10;99.90
51996;DHT22;38010;53.264;6.592;2023-08-17T03:52:17;21.10;99.90
51996;DHT22;38010;53.264;6.592;2023-08-17T03:54:43;21.10;99.90
51996;DHT22;38010;53.264;6.592;2023-08-17T03:57:09;21.10;99.90
51996;DHT22;38010;53.264;6.592;2023-08-17T03:59:34;21.10;99.90
51996;DHT22;38010;53.264;6.592;2023-08-17T04:02:00;21.10;99.90
51996;DHT22;38010;53.264;6.592;2023-08-17T04:04:26;21.10;99.90
51996;DHT22;38010;53.264;6.592;2023-08-17T04:06:52;21.10;99.90
51996;DHT22;38010;53.264;6.592;2023-08-17T04:09:18;21.10;99.90
51996;DHT22;38010;53.264;6.592;2023-08-17T04:11:44;21.10;99.90
51996;DHT22;38010;53.264;6.592;2023-08-17T04:14:10;21.10;99.90
51996;DHT22;38010;53.264;6.592;2023-08-17T04:16:36;21.10;99.90
51996;DHT22;38010;53.264;6.592;2023-08-17T04:19:01;21.10;99.90
51996;DHT22;38010;53.264;6.592;2023-08-17T04:21:27;21.00;99.90
51996;DHT22;38010;53.264;6.592;2023-08-17T04:23:53;21.00;99.90
51996;DHT22;38010;53.264;6.592;2023-08-17T04:26:19;21.00;99.90
51996;DHT22;38010;53.264;6.592;2023-08-17T04:28:44;21.00;99.90
51996;DHT22;38010;53.264;6.592;2023-08-17T04:31:10;21.10;99.90
51996;DHT22;38010;53.264;6.592;2023-08-17T04:33:36;21.00;99.90
51996;DHT22;38010;53.264;6.592;2023-08-17T04:36:01;21.00;99.90
51996;DHT22;38010;53.264;6.592;2023-08-17T04:38:27;21.00;99.90
51996;DHT22;38010;53.264;6.592;2023-08-17T04:40:53;21.00;99.90
51996;DHT22;38010;53.264;6.592;2023-08-17T04:43:19;21.00;99.90
51996;DHT22;38010;53.264;6.592;2023-08-17T04:45:45;21.00;99.90
51996;DHT22;38010;53.264;6.592;2023-08-17T04:48:13;21.00;99.90
51996;DHT22;38010;53.264;6.592;2023-08-17T04:50:39;21.00;99.90
51996;DHT22;38010;53.264;6.592;2023-08-17T04:53:05;21.00;99.90
51996;DHT22;38010;53.264;6.592;2023-08-17T04:55:30;21.00;99.90
51996;DHT22;38010;53.264;6.592;2023-08-17T04:57:57;21.00;99.90
51996;DHT22;38010;53.264;6.592;2023-08-17T05:00:23;21.00;99.90
51996;DHT22;38010;53.264;6.592;2023-08-17T05:02:54;21.00;99.90
51996;DHT22;38010;53.264;6.592;2023-08-17T05:05:20;21.00;99.90
51996;DHT22;38010;53.264;6.592;2023-08-17T05:07:46;21.00;99.90
51996;DHT22;38010;53.264;6.592;2023-08-17T05:10:12;21.00;99.90
51996;DHT22;38010;53.264;6.592;2023-08-17T05:12:37;21.00;99.90
51996;DHT22;38010;53.264;6.592;2023-08-17T05:15:04;21.00;99.90
51996;DHT22;38010;53.264;6.592;2023-08-17T05:17:29;21.00;99.90
51996;DHT22;38010;53.264;6.592;2023-08-17T05:19:55;21.00;99.90
51996;DHT22;38010;53.264;6.592;2023-08-17T05:22:21;21.00;99.90
51996;DHT22;38010;53.264;6.592;2023-08-17T05:24:47;21.00;99.90
51996;DHT22;38010;53.264;6.592;2023-08-17T05:27:13;21.00;99.90
51996;DHT22;38010;53.264;6.592;2023-08-17T05:29:38;21.00;99.90
51996;DHT22;38010;53.264;6.592;2023-08-17T05:32:04;21.00;99.90
51996;DHT22;38010;53.264;6.592;2023-08-17T05:34:30;21.00;99.90
51996;DHT22;38010;53.264;6.592;2023-08-17T05:36:56;21.00;99.90
51996;DHT22;38010;53.264;6.592;2023-08-17T05:39:22;21.00;99.90
51996;DHT22;38010;53.264;6.592;2023-08-17T05:41:47;21.00;99.90
51996;DHT22;38010;53.264;6.592;2023-08-17T05:44:13;21.00;99.90
51996;DHT22;38010;53.264;6.592;2023-08-17T05:46:40;21.00;99.90
51996;DHT22;38010;53.264;6.592;2023-08-17T05:49:06;21.00;99.90
51996;DHT22;38010;53.264;6.592;2023-08-17T05:51:32;21.00;99.90
51996;DHT22;38010;53.264;6.592;2023-08-17T05:53:58;21.00;99.90
51996;DHT22;38010;53.264;6.592;2023-08-17T05:56:23;20.90;99.90
51996;DHT22;38010;53.264;6.592;2023-08-17T05:58:49;21.00;99.90
51996;DHT22;38010;53.264;6.592;2023-08-17T06:01:15;21.00;99.90
51996;DHT22;38010;53.264;6.592;2023-08-17T06:03:41;21.00;99.90
51996;DHT22;38010;53.264;6.592;2023-08-17T06:06:06;20.90;99.90
51996;DHT22;38010;53.264;6.592;2023-08-17T06:08:32;20.90;99.90
51996;DHT22;38010;53.264;6.592;2023-08-17T06:10:58;21.00;99.90
51996;DHT22;38010;53.264;6.592;2023-08-17T06:13:24;21.00;99.90
51996;DHT22;38010;53.264;6.592;2023-08-17T06:15:50;21.00;99.90
51996;DHT22;38010;53.264;6.592;2023-08-17T06:18:16;20.90;99.90
51996;DHT22;38010;53.264;6.592;2023-08-17T06:20:42;21.00;99.90
51996;DHT22;38010;53.264;6.592;2023-08-17T06:23:07;21.00;99.90
51996;DHT22;38010;53.264;6.592;2023-08-17T06:25:33;21.00;99.90
51996;DHT22;38010;53.264;6.592;2023-08-17T06:28:00;21.00;99.90
51996;DHT22;38010;53.264;6.592;2023-08-17T06:30:26;21.00;99.90
51996;DHT22;38010;53.264;6.592;2023-08-17T06:32:52;21.00;99.90
51996;DHT22;38010;53.264;6.592;2023-08-17T06:35:17;21.10;99.90
51996;DHT22;38010;53.264;6.592;2023-08-17T06:37:43;21.00;99.90
51996;DHT22;38010;53.264;6.592;2023-08-17T06:40:09;21.10;99.90
51996;DHT22;38010;53.264;6.592;2023-08-17T06:42:35;21.20;99.90
51996;DHT22;38010;53.264;6.592;2023-08-17T06:45:01;21.20;99.90
51996;DHT22;38010;53.264;6.592;2023-08-17T06:47:27;21.30;99.90
51996;DHT22;38010;53.264;6.592;2023-08-17T06:49:54;21.40;99.90
51996;DHT22;38010;53.264;6.592;2023-08-17T06:52:19;21.50;99.90
51996;DHT22;38010;53.264;6.592;2023-08-17T06:54:45;21.50;99.90
51996;DHT22;38010;53.264;6.592;2023-08-17T06:57:11;21.60;99.90
51996;DHT22;38010;53.264;6.592;2023-08-17T06:59:37;21.70;99.90
51996;DHT22;38010;53.264;6.592;2023-08-17T07:02:02;21.70;99.90
51996;DHT22;38010;53.264;6.592;2023-08-17T07:04:28;21.70;99.90
51996;DHT22;38010;53.264;6.592;2023-08-17T07:06:54;21.60;99.90
51996;DHT22;38010;53.264;6.592;2023-08-17T07:09:21;21.60;99.90
51996;DHT22;38010;53.264;6.592;2023-08-17T07:11:48;21.70;99.90
51996;DHT22;38010;53.264;6.592;2023-08-17T07:14:16;21.70;99.90
51996;DHT22;38010;53.264;6.592;2023-08-17T07:16:43;21.80;99.90
51996;DHT22;38010;53.264;6.592;2023-08-17T07:19:08;21.80;99.90
51996;DHT22;38010;53.264;6.592;2023-08-17T07:21:34;21.80;99.90
51996;DHT22;38010;53.264;6.592;2023-08-17T07:24:14;21.90;99.90
51996;DHT22;38010;53.264;6.592;2023-08-17T07:26:41;21.90;99.90
51996;DHT22;38010;53.264;6.592;2023-08-17T07:29:06;21.80;99.90
51996;DHT22;38010;53.264;6.592;2023-08-17T07:31:32;21.70;99.90
51996;DHT22;38010;53.264;6.592;2023-08-17T07:34:03;21.70;99.90
51996;DHT22;38010;53.264;6.592;2023-08-17T07:36:28;21.70;99.90
51996;DHT22;38010;53.264;6.592;2023-08-17T07:38:54;21.70;99.90
51996;DHT22;38010;53.264;6.592;2023-08-17T07:41:20;21.80;99.90
51996;DHT22;38010;53.264;6.592;2023-08-17T07:43:46;21.90;99.90
51996;DHT22;38010;53.264;6.592;2023-08-17T07:46:11;21.90;99.90
51996;DHT22;38010;53.264;6.592;2023-08-17T07:48:37;21.90;99.90
51996;DHT22;38010;53.264;6.592;2023-08-17T07:51:03;22.00;99.90
51996;DHT22;38010;53.264;6.592;2023-08-17T07:53:28;22.00;99.90
51996;DHT22;38010;53.264;6.592;2023-08-17T07:55:54;22.00;99.90
51996;DHT22;38010;53.264;6.592;2023-08-17T07:58:20;22.10;99.90
51996;DHT22;38010;53.264;6.592;2023-08-17T08:00:46;22.10;99.90
51996;DHT22;38010;53.264;6.592;2023-08-17T08:03:11;22.10;99.90
51996;DHT22;38010;53.264;6.592;2023-08-17T08:05:37;22.10;99.90
51996;DHT22;38010;53.264;6.592;2023-08-17T08:08:03;22.00;99.90
51996;DHT22;38010;53.264;6.592;2023-08-17T08:10:29;22.00;99.90
51996;DHT22;38010;53.264;6.592;2023-08-17T08:12:55;22.00;99.90
51996;DHT22;38010;53.264;6.592;2023-08-17T08:15:21;22.00;99.90
51996;DHT22;38010;53.264;6.592;2023-08-17T08:17:47;22.00;99.90
51996;DHT22;38010;53.264;6.592;2023-08-17T08:20:15;22.10;99.90
51996;DHT22;38010;53.264;6.592;2023-08-17T08:22:40;22.10;99.90
51996;DHT22;38010;53.264;6.592;2023-08-17T08:25:07;22.20;99.90
51996;DHT22;38010;53.264;6.592;2023-08-17T08:27:35;22.20;99.90
51996;DHT22;38010;53.264;6.592;2023-08-17T08:30:01;22.20;99.90
51996;DHT22;38010;53.264;6.592;2023-08-17T08:32:26;22.20;99.90
51996;DHT22;38010;53.264;6.592;2023-08-17T08:34:52;22.30;99.90
51996;DHT22;38010;53.264;6.592;2023-08-17T08:37:18;22.30;99.90
51996;DHT22;38010;53.264;6.592;2023-08-17T08:39:52;22.30;99.90
51996;DHT22;38010;53.264;6.592;2023-08-17T08:42:19;22.30;99.90
51996;DHT22;38010;53.264;6.592;2023-08-17T08:44:46;22.30;99.90
51996;DHT22;38010;53.264;6.592;2023-08-17T08:47:12;22.30;99.90
51996;DHT22;38010;53.264;6.592;2023-08-17T08:49:49;22.30;99.90
51996;DHT22;38010;53.264;6.592;2023-08-17T08:52:22;22.30;99.90
51996;DHT22;38010;53.264;6.592;2023-08-17T08:54:50;22.30;99.90
51996;DHT22;38010;53.264;6.592;2023-08-17T08:57:17;22.40;99.90
51996;DHT22;38010;53.264;6.592;2023-08-17T08:59:46;22.40;99.90
51996;DHT22;38010;53.264;6.592;2023-08-17T09:02:16;22.40;99.90
51996;DHT22;38010;53.264;6.592;2023-08-17T09:04:43;22.40;99.90
51996;DHT22;38010;53.264;6.592;2023-08-17T09:07:12;22.40;99.90
51996;DHT22;38010;53.264;6.592;2023-08-17T09:09:41;22.40;99.90
51996;DHT22;38010;53.264;6.592;2023-08-17T09:12:07;22.40;99.90
51996;DHT22;38010;53.264;6.592;2023-08-17T09:14:35;22.40;99.90
51996;DHT22;38010;53.264;6.592;2023-08-17T09:17:05;22.50;99.90
51996;DHT22;38010;53.264;6.592;2023-08-17T09:19:34;22.40;99.90
51996;DHT22;38010;53.264;6.592;2023-08-17T09:22:00;22.40;99.90
51996;DHT22;38010;53.264;6.592;2023-08-17T09:24:36;22.30;99.90
51996;DHT22;38010;53.264;6.592;2023-08-17T09:27:03;22.30;99.90
51996;DHT22;38010;53.264;6.592;2023-08-17T09:29:29;22.30;99.90
51996;DHT22;38010;53.264;6.592;2023-08-17T09:32:06;22.30;99.90
51996;DHT22;38010;53.264;6.592;2023-08-17T09:34:32;22.30;99.90
51996;DHT22;38010;53.264;6.592;2023-08-17T09:37:05;22.30;99.90
51996;DHT22;38010;53.264;6.592;2023-08-17T09:39:32;22.30;99.90
51996;DHT22;38010;53.264;6.592;2023-08-17T09:41:59;22.30;99.90
51996;DHT22;38010;53.264;6.592;2023-08-17T09:44:25;22.30;99.90
51996;DHT22;38010;53.264;6.592;2023-08-17T09:46:51;22.30;99.90
51996;DHT22;38010;53.264;6.592;2023-08-17T09:49:20;22.30;99.90
51996;DHT22;38010;53.264;6.592;2023-08-17T09:51:49;22.20;99.90
51996;DHT22;38010;53.264;6.592;2023-08-17T09:54:22;22.30;99.90
51996;DHT22;38010;53.264;6.592;2023-08-17T09:56:50;22.20;99.90
51996;DHT22;38010;53.264;6.592;2023-08-17T09:59:17;22.20;99.90
51996;DHT22;38010;53.264;6.592;2023-08-17T10:01:49;22.20;99.90
51996;DHT22;38010;53.264;6.592;2023-08-17T10:04:20;22.20;99.90
51996;DHT22;38010;53.264;6.592;2023-08-17T10:06:48;22.20;99.90
51996;DHT22;38010;53.264;6.592;2023-08-17T10:09:22;22.20;99.90
51996;DHT22;38010;53.264;6.592;2023-08-17T10:11:52;22.10;99.90
51996;DHT22;38010;53.264;6.592;2023-08-17T10:14:22;22.10;99.90
51996;DHT22;38010;53.264;6.592;2023-08-17T10:17:01;22.10;99.90
51996;DHT22;38010;53.264;6.592;2023-08-17T10:19:37;22.00;99.90
51996;DHT22;38010;53.264;6.592;2023-08-17T10:24:38;22.00;99.90
51996;DHT22;38010;53.264;6.592;2023-08-17T10:27:05;22.00;99.90
51996;DHT22;38010;53.264;6.592;2023-08-17T10:29:32;22.00;99.90
51996;DHT22;38010;53.264;6.592;2023-08-17T10:32:00;22.00;99.90
51996;DHT22;38010;53.264;6.592;2023-08-17T10:34:27;21.90;99.90
51996;DHT22;38010;53.264;6.592;2023-08-17T10:36:54;21.90;99.90
51996;DHT22;38010;53.264;6.592;2023-08-17T10:39:28;22.00;99.90
51996;DHT22;38010;53.264;6.592;2023-08-17T10:41:55;21.90;99.90
51996;DHT22;38010;53.264;6.592;2023-08-17T10:47:24;21.90;99.90
51996;DHT22;38010;53.264;6.592;2023-08-17T10:50:04;21.90;99.90
51996;DHT22;38010;53.264;6.592;2023-08-17T10:52:32;21.90;99.90
51996;DHT22;38010;53.264;6.592;2023-08-17T10:55:03;21.90;99.90
51996;DHT22;38010;53.264;6.592;2023-08-17T10:57:51;21.90;99.90
51996;DHT22;38010;53.264;6.592;2023-08-17T11:00:22;21.90;99.90
51996;DHT22;38010;53.264;6.592;2023-08-17T11:02:59;21.90;99.90
51996;DHT22;38010;53.264;6.592;2023-08-17T11:08:32;21.90;99.90
51996;DHT22;38010;53.264;6.592;2023-08-17T11:13:34;21.90;99.90
51996;DHT22;38010;53.264;6.592;2023-08-17T11:16:02;21.90;99.90
51996;DHT22;38010;53.264;6.592;2023-08-17T11:18:28;21.90;99.90
51996;DHT22;38010;53.264;6.592;2023-08-17T11:20:55;21.90;99.90
51996;DHT22;38010;53.264;6.592;2023-08-17T11:23:22;21.90;99.90
51996;DHT22;38010;53.264;6.592;2023-08-17T11:25:53;21.90;99.90
51996;DHT22;38010;53.264;6.592;2023-08-17T11:28:18;21.90;99.90
51996;DHT22;38010;53.264;6.592;2023-08-17T11:30:44;21.90;99.90
51996;DHT22;38010;53.264;6.592;2023-08-17T11:33:10;21.90;99.90
51996;DHT22;38010;53.264;6.592;2023-08-17T11:35:37;21.90;99.90
51996;DHT22;38010;53.264;6.592;2023-08-17T11:38:03;21.90;99.90
51996;DHT22;38010;53.264;6.592;2023-08-17T11:40:29;21.90;99.90
51996;DHT22;38010;53.264;6.592;2023-08-17T11:42:55;21.90;99.90
51996;DHT22;38010;53.264;6.592;2023-08-17T11:45:21;21.90;99.90
51996;DHT22;38010;53.264;6.592;2023-08-17T11:47:48;21.90;99.90
51996;DHT22;38010;53.264;6.592;2023-08-17T11:50:14;21.90;99.90
51996;DHT22;38010;53.264;6.592;2023-08-17T11:52:40;21.90;99.90
51996;DHT22;38010;53.264;6.592;2023-08-17T11:55:08;21.90;99.90
51996;DHT22;38010;53.264;6.592;2023-08-17T11:57:37;21.90;99.90
51996;DHT22;38010;53.264;6.592;2023-08-17T12:00:05;21.90;99.90
51996;DHT22;38010;53.264;6.592;2023-08-17T12:02:37;21.90;99.90
51996;DHT22;38010;53.264;6.592;2023-08-17T12:05:08;21.90;99.90
51996;DHT22;38010;53.264;6.592;2023-08-17T12:07:35;21.80;99.90
51996;DHT22;38010;53.264;6.592;2023-08-17T12:10:03;21.80;99.90
51996;DHT22;38010;53.264;6.592;2023-08-17T12:12:30;21.80;99.90
51996;DHT22;38010;53.264;6.592;2023-08-17T12:14:57;21.90;99.90
51996;DHT22;38010;53.264;6.592;2023-08-17T12:17:23;21.90;99.90
51996;DHT22;38010;53.264;6.592;2023-08-17T12:19:50;21.80;99.90
51996;DHT22;38010;53.264;6.592;2023-08-17T12:22:19;21.80;99.90
51996;DHT22;38010;53.264;6.592;2023-08-17T12:24:45;21.80;99.90
51996;DHT22;38010;53.264;6.592;2023-08-17T12:27:11;21.80;99.90
51996;DHT22;38010;53.264;6.592;2023-08-17T12:29:50;21.80;99.90
51996;DHT22;38010;53.264;6.592;2023-08-17T12:32:17;21.80;99.90
51996;DHT22;38010;53.264;6.592;2023-08-17T12:34:44;21.80;99.90
51996;DHT22;38010;53.264;6.592;2023-08-17T12:37:10;21.90;99.90
51996;DHT22;38010;53.264;6.592;2023-08-17T12:39:37;21.90;99.90
51996;DHT22;38010;53.264;6.592;2023-08-17T12:42:03;21.90;99.90
51996;DHT22;38010;53.264;6.592;2023-08-17T12:44:29;21.80;99.90
51996;DHT22;38010;53.264;6.592;2023-08-17T12:46:55;21.80;99.90
51996;DHT22;38010;53.264;6.592;2023-08-17T12:49:22;21.80;99.90
51996;DHT22;38010;53.264;6.592;2023-08-17T12:51:48;21.70;99.90
51996;DHT22;38010;53.264;6.592;2023-08-17T12:54:14;21.70;99.90
51996;DHT22;38010;53.264;6.592;2023-08-17T12:56:39;21.70;99.90
51996;DHT22;38010;53.264;6.592;2023-08-17T12:59:05;21.70;99.90
51996;DHT22;38010;53.264;6.592;2023-08-17T13:01:31;21.70;99.90
51996;DHT22;38010;53.264;6.592;2023-08-17T13:03:56;21.70;99.90
51996;DHT22;38010;53.264;6.592;2023-08-17T13:06:22;21.70;99.90
51996;DHT22;38010;53.264;6.592;2023-08-17T13:08:48;21.70;99.90
51996;DHT22;38010;53.264;6.592;2023-08-17T13:11:14;21.70;99.90
51996;DHT22;38010;53.264;6.592;2023-08-17T13:13:39;21.70;99.90
51996;DHT22;38010;53.264;6.592;2023-08-17T13:16:05;21.70;99.90
51996;DHT22;38010;53.264;6.592;2023-08-17T13:18:31;21.70;99.90
51996;DHT22;38010;53.264;6.592;2023-08-17T13:20:57;21.70;99.90
51996;DHT22;38010;53.264;6.592;2023-08-17T13:23:22;21.60;99.90
51996;DHT22;38010;53.264;6.592;2023-08-17T13:25:48;21.70;99.90
51996;DHT22;38010;53.264;6.592;2023-08-17T13:28:18;21.70;99.90
51996;DHT22;38010;53.264;6.592;2023-08-17T13:30:43;21.70;99.90
51996;DHT22;38010;53.264;6.592;2023-08-17T13:33:09;21.60;99.90
51996;DHT22;38010;53.264;6.592;2023-08-17T13:35:35;21.60;99.90
51996;DHT22;38010;53.264;6.592;2023-08-17T13:38:00;21.60;99.90
51996;DHT22;38010;53.264;6.592;2023-08-17T13:40:30;21.60;99.90
51996;DHT22;38010;53.264;6.592;2023-08-17T13:42:56;21.60;99.90
51996;DHT22;38010;53.264;6.592;2023-08-17T13:45:21;21.70;99.90
51996;DHT22;38010;53.264;6.592;2023-08-17T13:47:47;21.60;99.90
51996;DHT22;38010;53.264;6.592;2023-08-17T13:50:13;21.70;99.90
51996;DHT22;38010;53.264;6.592;2023-08-17T13:52:39;21.60;99.90
51996;DHT22;38010;53.264;6.592;2023-08-17T13:55:05;21.60;99.90
51996;DHT22;38010;53.264;6.592;2023-08-17T13:57:31;21.60;99.90
51996;DHT22;38010;53.264;6.592;2023-08-17T13:59:57;21.60;99.90
51996;DHT22;38010;53.264;6.592;2023-08-17T14:02:22;21.60;99.90
51996;DHT22;38010;53.264;6.592;2023-08-17T14:04:48;21.60;99.90
51996;DHT22;38010;53.264;6.592;2023-08-17T14:07:14;21.60;99.90
51996;DHT22;38010;53.264;6.592;2023-08-17T14:09:40;21.60;99.90
51996;DHT22;38010;53.264;6.592;2023-08-17T14:12:05;21.60;99.90
51996;DHT22;38010;53.264;6.592;2023-08-17T14:14:31;21.70;99.90
51996;DHT22;38010;53.264;6.592;2023-08-17T14:16:58;21.70;99.90
51996;DHT22;38010;53.264;6.592;2023-08-17T14:19:24;21.70;99.90
51996;DHT22;38010;53.264;6.592;2023-08-17T14:21:49;21.70;99.90
51996;DHT22;38010;53.264;6.592;2023-08-17T14:24:16;21.70;99.90
51996;DHT22;38010;53.264;6.592;2023-08-17T14:26:42;21.70;99.90
51996;DHT22;38010;53.264;6.592;2023-08-17T14:29:08;21.70;99.90
51996;DHT22;38010;53.264;6.592;2023-08-17T14:31:33;21.70;99.90
51996;DHT22;38010;53.264;6.592;2023-08-17T14:33:59;21.70;99.90
51996;DHT22;38010;53.264;6.592;2023-08-17T14:36:40;21.70;99.90
51996;DHT22;38010;53.264;6.592;2023-08-17T14:39:06;21.70;99.90
51996;DHT22;38010;53.264;6.592;2023-08-17T14:41:31;21.70;99.90
51996;DHT22;38010;53.264;6.592;2023-08-17T14:44:00;21.70;99.90
51996;DHT22;38010;53.264;6.592;2023-08-17T14:46:26;21.70;99.90
51996;DHT22;38010;53.264;6.592;2023-08-17T14:51:52;21.60;99.90
51996;DHT22;38010;53.264;6.592;2023-08-17T14:54:18;21.70;99.90
51996;DHT22;38010;53.264;6.592;2023-08-17T14:56:43;21.60;99.90
51996;DHT22;38010;53.264;6.592;2023-08-17T14:59:09;21.60;99.90
51996;DHT22;38010;53.264;6.592;2023-08-17T15:01:35;21.60;99.90
51996;DHT22;38010;53.264;6.592;2023-08-17T15:04:01;21.60;99.90
51996;DHT22;38010;53.264;6.592;2023-08-17T15:06:26;21.60;99.90
51996;DHT22;38010;53.264;6.592;2023-08-17T15:08:52;21.60;99.90
51996;DHT22;38010;53.264;6.592;2023-08-17T15:11:18;21.60;99.90
51996;DHT22;38010;53.264;6.592;2023-08-17T15:13:44;21.60;99.90
51996;DHT22;38010;53.264;6.592;2023-08-17T15:16:11;21.60;99.90
51996;DHT22;38010;53.264;6.592;2023-08-17T15:18:37;21.60;99.90
51996;DHT22;38010;53.264;6.592;2023-08-17T15:21:03;21.60;99.90
51996;DHT22;38010;53.264;6.592;2023-08-17T15:23:29;21.60;99.90
51996;DHT22;38010;53.264;6.592;2023-08-17T15:25:55;21.60;99.90
51996;DHT22;38010;53.264;6.592;2023-08-17T15:28:20;21.60;99.90
51996;DHT22;38010;53.264;6.592;2023-08-17T15:30:50;21.60;99.90
51996;DHT22;38010;53.264;6.592;2023-08-17T15:33:25;21.60;99.90
51996;DHT22;38010;53.264;6.592;2023-08-17T15:35:51;21.60;99.90
51996;DHT22;38010;53.264;6.592;2023-08-17T15:38:16;21.50;99.90
51996;DHT22;38010;53.264;6.592;2023-08-17T15:40:42;21.50;99.90
51996;DHT22;38010;53.264;6.592;2023-08-17T15:43:08;21.50;99.90